sensor_id;sensor_type;location;lat;lon;timestamp;P1;durP1;ratioP1;P2;durP2;ratioP2
44564;SDS011;30275;51.822;-0.326;2023-04-25T00:02:20;12.23;;;4.63;;
44564;SDS011;30275;51.822;-0.326;2023-04-25T00:04:47;15.80;;;4.20;;
44564;SDS011;30275;51.822;-0.326;2023-04-25T00:07:14;14.18;;;4.80;;
44564;SDS011;30275;51.822;-0.326;2023-04-25T00:09:40;13.32;;;4.00;;
44564;SDS011;30275;51.822;-0.326;2023-04-25T00:12:06;16.73;;;4.90;;
44564;SDS011;30275;51.822;-0.326;2023-04-25T00:14:32;16.00;;;4.50;;
44564;SDS011;30275;51.822;-0.326;2023-04-25T00:16:59;11.68;;;4.38;;
44564;SDS011;30275;51.822;-0.326;2023-04-25T00:19:25;10.73;;;5.03;;
44564;SDS011;30275;51.822;-0.326;2023-04-25T00:21:51;13.00;;;4.43;;
44564;SDS011;30275;51.822;-0.326;2023-04-25T00:24:18;9.88;;;3.90;;
44564;SDS011;30275;51.822;-0.326;2023-04-25T00:26:44;12.32;;;3.83;;
44564;SDS011;30275;51.822;-0.326;2023-04-25T00:29:10;13.07;;;4.15;;
44564;SDS011;30275;51.822;-0.326;2023-04-25T00:31:36;12.93;;;3.72;;
44564;SDS011;30275;51.822;-0.326;2023-04-25T00:34:01;10.10;;;3.47;;
44564;SDS011;30275;51.822;-0.326;2023-04-25T00:36:27;12.02;;;4.07;;
44564;SDS011;30275;51.822;-0.326;2023-04-25T00:38:53;8.57;;;3.35;;
44564;SDS011;30275;51.822;-0.326;2023-04-25T00:41:19;7.28;;;3.65;;
44564;SDS011;30275;51.822;-0.326;2023-04-25T00:43:45;11.88;;;4.10;;
44564;SDS011;30275;51.822;-0.326;2023-04-25T00:46:12;10.43;;;2.90;;
44564;SDS011;30275;51.822;-0.326;2023-04-25T00:48:38;10.80;;;3.33;;
44564;SDS011;30275;51.822;-0.326;2023-04-25T00:51:03;13.15;;;3.90;;
44564;SDS011;30275;51.822;-0.326;2023-04-25T00:53:30;12.85;;;3.55;;
44564;SDS011;30275;51.822;-0.326;2023-04-25T00:55:57;11.98;;;3.60;;
44564;SDS011;30275;51.822;-0.326;2023-04-25T00:58:23;9.60;;;2.95;;
44564;SDS011;30275;51.822;-0.326;2023-04-25T01:00:49;10.00;;;3.95;;
44564;SDS011;30275;51.822;-0.326;2023-04-25T01:03:19;9.82;;;3.30;;
44564;SDS011;30275;51.822;-0.326;2023-04-25T01:05:46;9.15;;;3.05;;
44564;SDS011;30275;51.822;-0.326;2023-04-25T01:08:13;12.52;;;3.65;;
44564;SDS011;30275;51.822;-0.326;2023-04-25T01:10:39;7.28;;;3.28;;
44564;SDS011;30275;51.822;-0.326;2023-04-25T01:13:05;9.60;;;3.67;;
44564;SDS011;30275;51.822;-0.326;2023-04-25T01:15:31;11.90;;;3.10;;
44564;SDS011;30275;51.822;-0.326;2023-04-25T01:17:57;8.23;;;2.90;;
44564;SDS011;30275;51.822;-0.326;2023-04-25T01:20:23;9.55;;;3.08;;
44564;SDS011;30275;51.822;-0.326;2023-04-25T01:22:53;8.68;;;2.90;;
44564;SDS011;30275;51.822;-0.326;2023-04-25T01:25:20;12.40;;;4.28;;
44564;SDS011;30275;51.822;-0.326;2023-04-25T01:27:47;8.73;;;3.13;;
44564;SDS011;30275;51.822;-0.326;2023-04-25T01:30:13;8.15;;;2.85;;
44564;SDS011;30275;51.822;-0.326;2023-04-25T01:32:38;15.48;;;3.40;;
44564;SDS011;30275;51.822;-0.326;2023-04-25T01:35:07;7.50;;;3.40;;
44564;SDS011;30275;51.822;-0.326;2023-04-25T01:37:43;12.50;;;3.35;;
44564;SDS011;30275;51.822;-0.326;2023-04-25T01:40:10;11.05;;;2.92;;
44564;SDS011;30275;51.822;-0.326;2023-04-25T01:42:37;14.15;;;3.40;;
44564;SDS011;30275;51.822;-0.326;2023-04-25T01:45:06;9.15;;;3.05;;
44564;SDS011;30275;51.822;-0.326;2023-04-25T01:47:33;12.02;;;3.30;;
44564;SDS011;30275;51.822;-0.326;2023-04-25T01:50:00;6.78;;;3.35;;
44564;SDS011;30275;51.822;-0.326;2023-04-25T01:52:26;8.85;;;3.47;;
44564;SDS011;30275;51.822;-0.326;2023-04-25T01:54:52;11.50;;;3.88;;
44564;SDS011;30275;51.822;-0.326;2023-04-25T01:57:18;9.40;;;2.40;;
44564;SDS011;30275;51.822;-0.326;2023-04-25T01:59:43;7.70;;;2.80;;
44564;SDS011;30275;51.822;-0.326;2023-04-25T02:02:10;11.80;;;2.85;;
44564;SDS011;30275;51.822;-0.326;2023-04-25T02:04:35;9.27;;;3.28;;
44564;SDS011;30275;51.822;-0.326;2023-04-25T02:07:01;9.48;;;3.17;;
44564;SDS011;30275;51.822;-0.326;2023-04-25T02:09:26;15.55;;;3.60;;
44564;SDS011;30275;51.822;-0.326;2023-04-25T02:11:52;15.80;;;5.07;;
44564;SDS011;30275;51.822;-0.326;2023-04-25T02:14:18;20.88;;;6.40;;
44564;SDS011;30275;51.822;-0.326;2023-04-25T02:16:43;10.48;;;4.10;;
44564;SDS011;30275;51.822;-0.326;2023-04-25T02:19:09;10.10;;;4.15;;
44564;SDS011;30275;51.822;-0.326;2023-04-25T02:21:35;13.40;;;4.80;;
44564;SDS011;30275;51.822;-0.326;2023-04-25T02:24:02;13.57;;;4.25;;
44564;SDS011;30275;51.822;-0.326;2023-04-25T02:26:28;7.88;;;3.53;;
44564;SDS011;30275;51.822;-0.326;2023-04-25T02:28:55;10.90;;;3.85;;
44564;SDS011;30275;51.822;-0.326;2023-04-25T02:31:21;11.93;;;3.90;;
44564;SDS011;30275;51.822;-0.326;2023-04-25T02:33:47;10.65;;;3.63;;
44564;SDS011;30275;51.822;-0.326;2023-04-25T02:36:12;8.32;;;3.10;;
44564;SDS011;30275;51.822;-0.326;2023-04-25T02:38:38;10.80;;;3.28;;
44564;SDS011;30275;51.822;-0.326;2023-04-25T02:41:04;13.85;;;3.40;;
44564;SDS011;30275;51.822;-0.326;2023-04-25T02:43:30;14.35;;;3.53;;
44564;SDS011;30275;51.822;-0.326;2023-04-25T02:45:55;11.10;;;3.45;;
44564;SDS011;30275;51.822;-0.326;2023-04-25T02:48:21;12.20;;;3.72;;
44564;SDS011;30275;51.822;-0.326;2023-04-25T02:50:46;9.18;;;3.63;;
44564;SDS011;30275;51.822;-0.326;2023-04-25T02:53:12;8.55;;;3.78;;
44564;SDS011;30275;51.822;-0.326;2023-04-25T02:55:38;13.82;;;4.38;;
44564;SDS011;30275;51.822;-0.326;2023-04-25T02:58:04;15.25;;;4.63;;
44564;SDS011;30275;51.822;-0.326;2023-04-25T03:00:29;15.05;;;4.90;;
44564;SDS011;30275;51.822;-0.326;2023-04-25T03:02:55;17.25;;;5.47;;
44564;SDS011;30275;51.822;-0.326;2023-04-25T03:05:21;14.45;;;4.85;;
44564;SDS011;30275;51.822;-0.326;2023-04-25T03:07:46;14.52;;;4.82;;
44564;SDS011;30275;51.822;-0.326;2023-04-25T03:10:12;16.15;;;4.57;;
44564;SDS011;30275;51.822;-0.326;2023-04-25T03:12:38;13.77;;;4.72;;
44564;SDS011;30275;51.822;-0.326;2023-04-25T03:15:03;16.05;;;4.32;;
44564;SDS011;30275;51.822;-0.326;2023-04-25T03:17:29;11.40;;;4.22;;
44564;SDS011;30275;51.822;-0.326;2023-04-25T03:19:55;11.57;;;4.63;;
44564;SDS011;30275;51.822;-0.326;2023-04-25T03:22:22;12.10;;;3.75;;
44564;SDS011;30275;51.822;-0.326;2023-04-25T03:24:48;18.50;;;4.47;;
44564;SDS011;30275;51.822;-0.326;2023-04-25T03:27:15;12.43;;;4.55;;
44564;SDS011;30275;51.822;-0.326;2023-04-25T03:29:40;11.05;;;3.85;;
44564;SDS011;30275;51.822;-0.326;2023-04-25T03:32:06;11.05;;;3.53;;
44564;SDS011;30275;51.822;-0.326;2023-04-25T03:34:32;11.48;;;3.80;;
44564;SDS011;30275;51.822;-0.326;2023-04-25T03:36:57;8.82;;;3.33;;
44564;SDS011;30275;51.822;-0.326;2023-04-25T03:39:23;14.93;;;3.70;;
44564;SDS011;30275;51.822;-0.326;2023-04-25T03:41:48;12.60;;;3.50;;
44564;SDS011;30275;51.822;-0.326;2023-04-25T03:44:14;8.48;;;3.47;;
44564;SDS011;30275;51.822;-0.326;2023-04-25T03:46:39;8.32;;;3.10;;
44564;SDS011;30275;51.822;-0.326;2023-04-25T03:49:05;6.95;;;2.95;;
44564;SDS011;30275;51.822;-0.326;2023-04-25T03:51:31;13.93;;;4.43;;
44564;SDS011;30275;51.822;-0.326;2023-04-25T03:53:57;12.05;;;3.30;;
44564;SDS011;30275;51.822;-0.326;2023-04-25T03:56:23;11.45;;;3.55;;
44564;SDS011;30275;51.822;-0.326;2023-04-25T03:58:49;9.23;;;3.20;;
44564;SDS011;30275;51.822;-0.326;2023-04-25T04:01:14;13.15;;;4.40;;
44564;SDS011;30275;51.822;-0.326;2023-04-25T04:03:40;17.20;;;5.97;;
44564;SDS011;30275;51.822;-0.326;2023-04-25T04:06:05;12.43;;;3.38;;
44564;SDS011;30275;51.822;-0.326;2023-04-25T04:08:32;8.52;;;3.67;;
44564;SDS011;30275;51.822;-0.326;2023-04-25T04:10:58;8.80;;;3.30;;
44564;SDS011;30275;51.822;-0.326;2023-04-25T04:13:25;14.95;;;4.25;;
44564;SDS011;30275;51.822;-0.326;2023-04-25T04:15:54;12.18;;;3.75;;
44564;SDS011;30275;51.822;-0.326;2023-04-25T04:18:20;9.15;;;3.30;;
44564;SDS011;30275;51.822;-0.326;2023-04-25T04:20:46;12.93;;;3.50;;
44564;SDS011;30275;51.822;-0.326;2023-04-25T04:23:12;10.52;;;3.63;;
44564;SDS011;30275;51.822;-0.326;2023-04-25T04:25:37;8.15;;;3.83;;
44564;SDS011;30275;51.822;-0.326;2023-04-25T04:28:04;12.13;;;3.08;;
44564;SDS011;30275;51.822;-0.326;2023-04-25T04:30:31;12.30;;;3.60;;
44564;SDS011;30275;51.822;-0.326;2023-04-25T04:32:58;10.70;;;3.30;;
44564;SDS011;30275;51.822;-0.326;2023-04-25T04:35:24;13.38;;;3.75;;
44564;SDS011;30275;51.822;-0.326;2023-04-25T04:37:50;10.00;;;3.70;;
44564;SDS011;30275;51.822;-0.326;2023-04-25T04:40:15;6.22;;;3.63;;
44564;SDS011;30275;51.822;-0.326;2023-04-25T04:42:42;7.55;;;3.05;;
44564;SDS011;30275;51.822;-0.326;2023-04-25T04:45:10;11.27;;;4.07;;
44564;SDS011;30275;51.822;-0.326;2023-04-25T04:47:38;12.48;;;3.97;;
44564;SDS011;30275;51.822;-0.326;2023-04-25T04:50:09;13.10;;;4.00;;
44564;SDS011;30275;51.822;-0.326;2023-04-25T04:52:35;12.13;;;5.00;;
44564;SDS011;30275;51.822;-0.326;2023-04-25T04:55:02;15.63;;;4.88;;
44564;SDS011;30275;51.822;-0.326;2023-04-25T04:57:30;10.13;;;4.28;;
44564;SDS011;30275;51.822;-0.326;2023-04-25T04:59:58;11.73;;;4.07;;
44564;SDS011;30275;51.822;-0.326;2023-04-25T05:02:23;9.73;;;4.07;;
44564;SDS011;30275;51.822;-0.326;2023-04-25T05:04:49;11.85;;;4.55;;
44564;SDS011;30275;51.822;-0.326;2023-04-25T05:07:16;11.30;;;4.28;;
44564;SDS011;30275;51.822;-0.326;2023-04-25T05:09:42;13.73;;;3.95;;
44564;SDS011;30275;51.822;-0.326;2023-04-25T05:12:07;12.73;;;3.70;;
44564;SDS011;30275;51.822;-0.326;2023-04-25T05:14:33;13.65;;;4.57;;
44564;SDS011;30275;51.822;-0.326;2023-04-25T05:16:59;12.48;;;4.55;;
44564;SDS011;30275;51.822;-0.326;2023-04-25T05:19:25;13.38;;;4.20;;
44564;SDS011;30275;51.822;-0.326;2023-04-25T05:21:51;15.45;;;3.92;;
44564;SDS011;30275;51.822;-0.326;2023-04-25T05:24:17;9.38;;;3.88;;
44564;SDS011;30275;51.822;-0.326;2023-04-25T05:26:42;12.95;;;4.03;;
44564;SDS011;30275;51.822;-0.326;2023-04-25T05:29:08;8.18;;;3.95;;
44564;SDS011;30275;51.822;-0.326;2023-04-25T05:31:34;10.55;;;3.05;;
44564;SDS011;30275;51.822;-0.326;2023-04-25T05:34:00;7.32;;;2.88;;
44564;SDS011;30275;51.822;-0.326;2023-04-25T05:36:26;8.65;;;3.08;;
44564;SDS011;30275;51.822;-0.326;2023-04-25T05:38:52;11.10;;;3.33;;
44564;SDS011;30275;51.822;-0.326;2023-04-25T05:41:18;6.20;;;2.92;;
44564;SDS011;30275;51.822;-0.326;2023-04-25T05:43:43;9.15;;;3.53;;
44564;SDS011;30275;51.822;-0.326;2023-04-25T05:46:11;9.65;;;3.53;;
44564;SDS011;30275;51.822;-0.326;2023-04-25T05:48:38;10.63;;;3.25;;
44564;SDS011;30275;51.822;-0.326;2023-04-25T05:51:04;7.93;;;4.03;;
44564;SDS011;30275;51.822;-0.326;2023-04-25T05:53:30;9.00;;;3.28;;
44564;SDS011;30275;51.822;-0.326;2023-04-25T05:55:55;7.43;;;3.20;;
44564;SDS011;30275;51.822;-0.326;2023-04-25T05:58:21;13.10;;;3.58;;
44564;SDS011;30275;51.822;-0.326;2023-04-25T06:00:47;12.55;;;3.75;;
44564;SDS011;30275;51.822;-0.326;2023-04-25T06:03:13;12.82;;;4.07;;
44564;SDS011;30275;51.822;-0.326;2023-04-25T06:05:41;14.18;;;4.53;;
44564;SDS011;30275;51.822;-0.326;2023-04-25T06:08:07;12.30;;;3.42;;
44564;SDS011;30275;51.822;-0.326;2023-04-25T06:10:32;9.18;;;3.03;;
44564;SDS011;30275;51.822;-0.326;2023-04-25T06:12:58;11.85;;;3.45;;
44564;SDS011;30275;51.822;-0.326;2023-04-25T06:15:23;10.65;;;3.42;;
44564;SDS011;30275;51.822;-0.326;2023-04-25T06:17:49;11.32;;;3.33;;
44564;SDS011;30275;51.822;-0.326;2023-04-25T06:20:15;11.88;;;3.72;;
44564;SDS011;30275;51.822;-0.326;2023-04-25T06:22:40;9.38;;;4.32;;
44564;SDS011;30275;51.822;-0.326;2023-04-25T06:25:06;11.98;;;4.03;;
44564;SDS011;30275;51.822;-0.326;2023-04-25T06:27:32;10.45;;;4.32;;
44564;SDS011;30275;51.822;-0.326;2023-04-25T06:29:58;14.35;;;4.68;;
44564;SDS011;30275;51.822;-0.326;2023-04-25T06:32:24;10.15;;;3.13;;
44564;SDS011;30275;51.822;-0.326;2023-04-25T06:34:52;6.88;;;3.00;;
44564;SDS011;30275;51.822;-0.326;2023-04-25T06:37:18;14.13;;;3.83;;
44564;SDS011;30275;51.822;-0.326;2023-04-25T06:39:43;7.95;;;3.10;;
44564;SDS011;30275;51.822;-0.326;2023-04-25T06:42:09;9.95;;;3.10;;
44564;SDS011;30275;51.822;-0.326;2023-04-25T06:44:35;8.75;;;2.90;;
44564;SDS011;30275;51.822;-0.326;2023-04-25T06:47:00;10.70;;;3.22;;
44564;SDS011;30275;51.822;-0.326;2023-04-25T06:49:26;10.00;;;2.92;;
44564;SDS011;30275;51.822;-0.326;2023-04-25T06:51:51;7.40;;;3.00;;
44564;SDS011;30275;51.822;-0.326;2023-04-25T06:54:17;9.23;;;3.40;;
44564;SDS011;30275;51.822;-0.326;2023-04-25T06:56:43;11.95;;;4.35;;
44564;SDS011;30275;51.822;-0.326;2023-04-25T06:59:08;13.52;;;3.13;;
44564;SDS011;30275;51.822;-0.326;2023-04-25T07:01:34;9.55;;;3.05;;
44564;SDS011;30275;51.822;-0.326;2023-04-25T07:04:00;6.03;;;3.15;;
44564;SDS011;30275;51.822;-0.326;2023-04-25T07:06:26;11.75;;;2.80;;
44564;SDS011;30275;51.822;-0.326;2023-04-25T07:08:52;11.52;;;2.80;;
44564;SDS011;30275;51.822;-0.326;2023-04-25T07:11:18;9.18;;;2.97;;
44564;SDS011;30275;51.822;-0.326;2023-04-25T07:13:44;7.85;;;2.60;;
44564;SDS011;30275;51.822;-0.326;2023-04-25T07:16:10;7.07;;;3.60;;
44564;SDS011;30275;51.822;-0.326;2023-04-25T07:18:35;10.90;;;2.67;;
44564;SDS011;30275;51.822;-0.326;2023-04-25T07:21:01;9.20;;;2.55;;
44564;SDS011;30275;51.822;-0.326;2023-04-25T07:23:26;11.63;;;3.08;;
44564;SDS011;30275;51.822;-0.326;2023-04-25T07:25:52;8.55;;;2.72;;
44564;SDS011;30275;51.822;-0.326;2023-04-25T07:28:18;10.93;;;2.70;;
44564;SDS011;30275;51.822;-0.326;2023-04-25T07:30:43;8.50;;;2.60;;
44564;SDS011;30275;51.822;-0.326;2023-04-25T07:33:09;11.18;;;2.80;;
44564;SDS011;30275;51.822;-0.326;2023-04-25T07:35:34;6.05;;;2.00;;
44564;SDS011;30275;51.822;-0.326;2023-04-25T07:38:01;6.05;;;2.15;;
44564;SDS011;30275;51.822;-0.326;2023-04-25T07:40:27;7.68;;;2.42;;
44564;SDS011;30275;51.822;-0.326;2023-04-25T07:42:53;5.15;;;2.30;;
44564;SDS011;30275;51.822;-0.326;2023-04-25T07:45:19;5.75;;;2.40;;
44564;SDS011;30275;51.822;-0.326;2023-04-25T07:47:44;6.57;;;2.22;;
44564;SDS011;30275;51.822;-0.326;2023-04-25T07:50:10;9.55;;;2.60;;
44564;SDS011;30275;51.822;-0.326;2023-04-25T07:52:35;7.10;;;2.05;;
44564;SDS011;30275;51.822;-0.326;2023-04-25T07:55:01;5.15;;;2.40;;
44564;SDS011;30275;51.822;-0.326;2023-04-25T07:57:27;6.00;;;1.85;;
44564;SDS011;30275;51.822;-0.326;2023-04-25T07:59:54;7.85;;;2.17;;
44564;SDS011;30275;51.822;-0.326;2023-04-25T08:02:19;6.82;;;1.90;;
44564;SDS011;30275;51.822;-0.326;2023-04-25T08:04:45;8.40;;;2.15;;
44564;SDS011;30275;51.822;-0.326;2023-04-25T08:07:11;9.18;;;2.10;;
44564;SDS011;30275;51.822;-0.326;2023-04-25T08:09:37;6.53;;;2.20;;
44564;SDS011;30275;51.822;-0.326;2023-04-25T08:12:03;6.75;;;2.05;;
44564;SDS011;30275;51.822;-0.326;2023-04-25T08:14:29;8.18;;;1.98;;
44564;SDS011;30275;51.822;-0.326;2023-04-25T08:17:00;7.32;;;2.25;;
44564;SDS011;30275;51.822;-0.326;2023-04-25T08:19:27;9.27;;;2.40;;
44564;SDS011;30275;51.822;-0.326;2023-04-25T08:21:52;4.22;;;2.33;;
44564;SDS011;30275;51.822;-0.326;2023-04-25T08:24:18;5.03;;;2.10;;
44564;SDS011;30275;51.822;-0.326;2023-04-25T08:26:44;7.15;;;2.28;;
44564;SDS011;30275;51.822;-0.326;2023-04-25T08:29:10;5.22;;;2.05;;
44564;SDS011;30275;51.822;-0.326;2023-04-25T08:31:36;5.03;;;1.98;;
44564;SDS011;30275;51.822;-0.326;2023-04-25T08:34:02;4.93;;;2.03;;
44564;SDS011;30275;51.822;-0.326;2023-04-25T08:36:27;5.45;;;2.00;;
44564;SDS011;30275;51.822;-0.326;2023-04-25T08:38:53;5.78;;;1.55;;
44564;SDS011;30275;51.822;-0.326;2023-04-25T08:41:19;4.63;;;1.70;;
44564;SDS011;30275;51.822;-0.326;2023-04-25T08:43:47;5.40;;;1.98;;
44564;SDS011;30275;51.822;-0.326;2023-04-25T08:46:16;4.95;;;1.90;;
44564;SDS011;30275;51.822;-0.326;2023-04-25T08:48:44;5.80;;;2.00;;
44564;SDS011;30275;51.822;-0.326;2023-04-25T08:51:14;7.22;;;1.75;;
44564;SDS011;30275;51.822;-0.326;2023-04-25T08:53:46;7.03;;;2.20;;
44564;SDS011;30275;51.822;-0.326;2023-04-25T08:56:15;4.43;;;1.98;;
44564;SDS011;30275;51.822;-0.326;2023-04-25T08:58:43;3.65;;;1.75;;
44564;SDS011;30275;51.822;-0.326;2023-04-25T09:01:10;4.22;;;1.85;;
44564;SDS011;30275;51.822;-0.326;2023-04-25T09:03:36;4.20;;;1.60;;
44564;SDS011;30275;51.822;-0.326;2023-04-25T09:06:02;4.43;;;2.30;;
44564;SDS011;30275;51.822;-0.326;2023-04-25T09:08:28;4.55;;;1.50;;
44564;SDS011;30275;51.822;-0.326;2023-04-25T09:10:55;4.63;;;1.70;;
44564;SDS011;30275;51.822;-0.326;2023-04-25T09:13:24;4.03;;;1.67;;
44564;SDS011;30275;51.822;-0.326;2023-04-25T09:15:52;6.53;;;2.20;;
44564;SDS011;30275;51.822;-0.326;2023-04-25T09:20:49;2.60;;;1.40;;
44564;SDS011;30275;51.822;-0.326;2023-04-25T09:23:14;5.13;;;1.52;;
44564;SDS011;30275;51.822;-0.326;2023-04-25T09:25:40;4.20;;;1.50;;
44564;SDS011;30275;51.822;-0.326;2023-04-25T09:28:08;5.40;;;1.55;;
44564;SDS011;30275;51.822;-0.326;2023-04-25T09:30:34;6.53;;;1.95;;
44564;SDS011;30275;51.822;-0.326;2023-04-25T09:33:08;5.20;;;1.73;;
44564;SDS011;30275;51.822;-0.326;2023-04-25T09:35:35;3.80;;;1.85;;
44564;SDS011;30275;51.822;-0.326;2023-04-25T09:38:06;7.25;;;1.95;;
44564;SDS011;30275;51.822;-0.326;2023-04-25T09:40:40;6.13;;;2.00;;
44564;SDS011;30275;51.822;-0.326;2023-04-25T09:43:10;4.10;;;1.58;;
44564;SDS011;30275;51.822;-0.326;2023-04-25T09:45:43;3.97;;;1.55;;
44564;SDS011;30275;51.822;-0.326;2023-04-25T09:48:10;4.68;;;1.80;;
44564;SDS011;30275;51.822;-0.326;2023-04-25T09:50:43;7.13;;;1.80;;
44564;SDS011;30275;51.822;-0.326;2023-04-25T09:53:09;6.18;;;1.92;;
44564;SDS011;30275;51.822;-0.326;2023-04-25T09:55:35;4.28;;;1.55;;
44564;SDS011;30275;51.822;-0.326;2023-04-25T09:58:03;5.97;;;2.67;;
44564;SDS011;30275;51.822;-0.326;2023-04-25T10:00:33;5.07;;;1.80;;
44564;SDS011;30275;51.822;-0.326;2023-04-25T10:03:03;5.30;;;1.77;;
44564;SDS011;30275;51.822;-0.326;2023-04-25T10:05:32;3.03;;;1.65;;
44564;SDS011;30275;51.822;-0.326;2023-04-25T10:08:01;3.20;;;1.70;;
44564;SDS011;30275;51.822;-0.326;2023-04-25T10:10:28;5.15;;;1.70;;
44564;SDS011;30275;51.822;-0.326;2023-04-25T10:12:57;4.65;;;1.73;;
44564;SDS011;30275;51.822;-0.326;2023-04-25T10:15:23;4.75;;;1.52;;
44564;SDS011;30275;51.822;-0.326;2023-04-25T10:17:49;4.03;;;1.73;;
44564;SDS011;30275;51.822;-0.326;2023-04-25T10:20:16;5.13;;;1.40;;
44564;SDS011;30275;51.822;-0.326;2023-04-25T10:22:42;5.20;;;1.60;;
44564;SDS011;30275;51.822;-0.326;2023-04-25T10:25:10;5.38;;;1.77;;
44564;SDS011;30275;51.822;-0.326;2023-04-25T10:27:36;3.80;;;1.73;;
44564;SDS011;30275;51.822;-0.326;2023-04-25T10:30:24;4.93;;;1.70;;
44564;SDS011;30275;51.822;-0.326;2023-04-25T10:32:49;3.30;;;1.30;;
44564;SDS011;30275;51.822;-0.326;2023-04-25T10:35:16;4.32;;;1.40;;
44564;SDS011;30275;51.822;-0.326;2023-04-25T10:40:34;2.53;;;1.35;;
44564;SDS011;30275;51.822;-0.326;2023-04-25T10:46:16;4.65;;;1.35;;
44564;SDS011;30275;51.822;-0.326;2023-04-25T10:53:44;2.72;;;1.27;;
44564;SDS011;30275;51.822;-0.326;2023-04-25T10:58:41;3.35;;;1.45;;
44564;SDS011;30275;51.822;-0.326;2023-04-25T11:01:07;2.70;;;1.52;;
44564;SDS011;30275;51.822;-0.326;2023-04-25T11:03:37;2.88;;;1.55;;
44564;SDS011;30275;51.822;-0.326;2023-04-25T11:06:06;3.10;;;1.70;;
44564;SDS011;30275;51.822;-0.326;2023-04-25T11:08:56;3.47;;;1.30;;
44564;SDS011;30275;51.822;-0.326;2023-04-25T11:11:22;2.65;;;1.23;;
44564;SDS011;30275;51.822;-0.326;2023-04-25T11:13:48;4.65;;;1.30;;
44564;SDS011;30275;51.822;-0.326;2023-04-25T11:16:15;5.00;;;1.60;;
44564;SDS011;30275;51.822;-0.326;2023-04-25T11:18:42;4.05;;;1.70;;
44564;SDS011;30275;51.822;-0.326;2023-04-25T11:21:08;2.45;;;1.38;;
44564;SDS011;30275;51.822;-0.326;2023-04-25T11:23:34;2.20;;;1.38;;
44564;SDS011;30275;51.822;-0.326;2023-04-25T11:26:00;5.03;;;1.63;;
44564;SDS011;30275;51.822;-0.326;2023-04-25T11:28:26;3.30;;;1.60;;
44564;SDS011;30275;51.822;-0.326;2023-04-25T11:30:52;3.97;;;1.30;;
44564;SDS011;30275;51.822;-0.326;2023-04-25T11:33:18;2.83;;;1.45;;
44564;SDS011;30275;51.822;-0.326;2023-04-25T11:35:48;4.82;;;1.52;;
44564;SDS011;30275;51.822;-0.326;2023-04-25T11:38:14;3.38;;;1.42;;
44564;SDS011;30275;51.822;-0.326;2023-04-25T11:40:40;3.35;;;1.60;;
44564;SDS011;30275;51.822;-0.326;2023-04-25T11:43:05;2.63;;;1.10;;
44564;SDS011;30275;51.822;-0.326;2023-04-25T11:45:32;3.13;;;1.70;;
44564;SDS011;30275;51.822;-0.326;2023-04-25T11:47:57;3.30;;;1.45;;
44564;SDS011;30275;51.822;-0.326;2023-04-25T11:50:23;4.13;;;1.38;;
44564;SDS011;30275;51.822;-0.326;2023-04-25T11:52:48;3.42;;;1.50;;
44564;SDS011;30275;51.822;-0.326;2023-04-25T11:55:16;4.82;;;1.83;;
44564;SDS011;30275;51.822;-0.326;2023-04-25T11:57:43;3.13;;;1.50;;
44564;SDS011;30275;51.822;-0.326;2023-04-25T12:00:11;3.00;;;1.42;;
44564;SDS011;30275;51.822;-0.326;2023-04-25T12:02:40;3.60;;;1.88;;
44564;SDS011;30275;51.822;-0.326;2023-04-25T12:05:07;5.60;;;1.90;;
44564;SDS011;30275;51.822;-0.326;2023-04-25T12:07:34;3.00;;;1.42;;
44564;SDS011;30275;51.822;-0.326;2023-04-25T12:10:04;3.25;;;1.60;;
44564;SDS011;30275;51.822;-0.326;2023-04-25T12:12:34;3.70;;;1.52;;
44564;SDS011;30275;51.822;-0.326;2023-04-25T12:15:16;5.18;;;2.20;;
44564;SDS011;30275;51.822;-0.326;2023-04-25T12:17:46;5.80;;;1.85;;
44564;SDS011;30275;51.822;-0.326;2023-04-25T12:20:14;3.90;;;1.65;;
44564;SDS011;30275;51.822;-0.326;2023-04-25T12:22:42;3.53;;;2.00;;
44564;SDS011;30275;51.822;-0.326;2023-04-25T12:25:10;4.95;;;1.83;;
44564;SDS011;30275;51.822;-0.326;2023-04-25T12:28:08;4.90;;;1.67;;
44564;SDS011;30275;51.822;-0.326;2023-04-25T12:31:00;2.97;;;1.50;;
44564;SDS011;30275;51.822;-0.326;2023-04-25T12:33:30;3.95;;;1.40;;
44564;SDS011;30275;51.822;-0.326;2023-04-25T12:36:01;2.90;;;1.85;;
44564;SDS011;30275;51.822;-0.326;2023-04-25T12:38:35;3.45;;;2.00;;
44564;SDS011;30275;51.822;-0.326;2023-04-25T12:41:02;2.80;;;1.40;;
44564;SDS011;30275;51.822;-0.326;2023-04-25T12:43:28;3.35;;;1.42;;
44564;SDS011;30275;51.822;-0.326;2023-04-25T12:45:54;5.88;;;2.42;;
44564;SDS011;30275;51.822;-0.326;2023-04-25T12:48:21;2.75;;;1.42;;
44564;SDS011;30275;51.822;-0.326;2023-04-25T12:50:47;9.15;;;2.08;;
44564;SDS011;30275;51.822;-0.326;2023-04-25T12:53:23;4.25;;;2.22;;
44564;SDS011;30275;51.822;-0.326;2023-04-25T12:55:49;4.68;;;2.08;;
44564;SDS011;30275;51.822;-0.326;2023-04-25T12:58:15;6.32;;;2.13;;
44564;SDS011;30275;51.822;-0.326;2023-04-25T13:00:42;6.30;;;2.40;;
44564;SDS011;30275;51.822;-0.326;2023-04-25T13:03:08;2.72;;;2.00;;
44564;SDS011;30275;51.822;-0.326;2023-04-25T13:05:36;4.60;;;1.92;;
44564;SDS011;30275;51.822;-0.326;2023-04-25T13:08:02;4.63;;;1.88;;
44564;SDS011;30275;51.822;-0.326;2023-04-25T13:10:27;4.32;;;1.90;;
44564;SDS011;30275;51.822;-0.326;2023-04-25T13:12:53;3.75;;;1.80;;
44564;SDS011;30275;51.822;-0.326;2023-04-25T13:15:19;4.45;;;2.25;;
44564;SDS011;30275;51.822;-0.326;2023-04-25T13:17:44;6.18;;;2.75;;
44564;SDS011;30275;51.822;-0.326;2023-04-25T13:20:10;5.32;;;2.13;;
44564;SDS011;30275;51.822;-0.326;2023-04-25T13:22:39;6.07;;;1.92;;
44564;SDS011;30275;51.822;-0.326;2023-04-25T13:25:05;4.15;;;1.80;;
44564;SDS011;30275;51.822;-0.326;2023-04-25T13:27:32;6.38;;;2.50;;
44564;SDS011;30275;51.822;-0.326;2023-04-25T13:30:02;4.43;;;1.98;;
44564;SDS011;30275;51.822;-0.326;2023-04-25T13:32:35;5.55;;;2.20;;
44564;SDS011;30275;51.822;-0.326;2023-04-25T13:35:05;2.65;;;2.38;;
44564;SDS011;30275;51.822;-0.326;2023-04-25T13:37:36;3.58;;;1.92;;
44564;SDS011;30275;51.822;-0.326;2023-04-25T13:40:02;4.25;;;2.22;;
44564;SDS011;30275;51.822;-0.326;2023-04-25T13:42:30;4.78;;;1.90;;
44564;SDS011;30275;51.822;-0.326;2023-04-25T13:44:56;5.50;;;2.40;;
44564;SDS011;30275;51.822;-0.326;2023-04-25T13:47:22;4.47;;;2.13;;
44564;SDS011;30275;51.822;-0.326;2023-04-25T13:49:48;3.55;;;2.33;;
44564;SDS011;30275;51.822;-0.326;2023-04-25T13:52:14;4.78;;;2.35;;
44564;SDS011;30275;51.822;-0.326;2023-04-25T13:54:40;3.42;;;1.80;;
44564;SDS011;30275;51.822;-0.326;2023-04-25T13:57:06;3.80;;;1.80;;
44564;SDS011;30275;51.822;-0.326;2023-04-25T13:59:31;3.78;;;2.00;;
44564;SDS011;30275;51.822;-0.326;2023-04-25T14:01:57;5.03;;;2.90;;
44564;SDS011;30275;51.822;-0.326;2023-04-25T14:04:23;5.05;;;2.70;;
44564;SDS011;30275;51.822;-0.326;2023-04-25T14:06:49;3.70;;;2.42;;
44564;SDS011;30275;51.822;-0.326;2023-04-25T14:09:16;4.75;;;3.25;;
44564;SDS011;30275;51.822;-0.326;2023-04-25T14:11:42;4.18;;;2.15;;
44564;SDS011;30275;51.822;-0.326;2023-04-25T14:14:08;3.90;;;2.55;;
44564;SDS011;30275;51.822;-0.326;2023-04-25T14:16:34;4.78;;;2.50;;
44564;SDS011;30275;51.822;-0.326;2023-04-25T14:19:00;7.28;;;2.60;;
44564;SDS011;30275;51.822;-0.326;2023-04-25T14:21:26;4.28;;;2.63;;
44564;SDS011;30275;51.822;-0.326;2023-04-25T14:23:53;5.00;;;2.20;;
44564;SDS011;30275;51.822;-0.326;2023-04-25T14:26:19;3.75;;;2.60;;
44564;SDS011;30275;51.822;-0.326;2023-04-25T14:28:44;5.47;;;2.50;;
44564;SDS011;30275;51.822;-0.326;2023-04-25T14:31:10;3.72;;;2.28;;
44564;SDS011;30275;51.822;-0.326;2023-04-25T14:33:35;5.38;;;2.05;;
44564;SDS011;30275;51.822;-0.326;2023-04-25T14:36:04;3.70;;;2.10;;
44564;SDS011;30275;51.822;-0.326;2023-04-25T14:38:30;5.78;;;2.38;;
44564;SDS011;30275;51.822;-0.326;2023-04-25T14:40:55;4.28;;;2.47;;
44564;SDS011;30275;51.822;-0.326;2023-04-25T14:43:21;4.68;;;2.40;;
44564;SDS011;30275;51.822;-0.326;2023-04-25T14:45:47;3.72;;;2.20;;